Time;durP1;ratioP1;P1;durP2;ratioP2;P2;SDS_P1;SDS_P2;PMS_P1;PMS_P2;Temp;Humidity;BMP_temperature;BMP_pressure;BME280_temperature;BME280_humidity;BME280_pressure;Samples;Min_cycle;Max_cycle;Signal;HPM_P1;HPM_P2
2023/04/17 00:01:11;;;;;;;32.05;24.10;;;;;;;;;;5077102;28;20434;-82
2023/04/17 00:03:38;;;;;;;36.45;27.55;;;;;;;;;;5081402;28;20418;-82
2023/04/17 00:06:05;;;;;;;34.22;27.13;;;;;;;;;;5072013;28;20432;-82
2023/04/17 00:08:32;;;;;;;35.08;25.63;;;;;;;;;;5081188;28;20505;-82
2023/04/17 00:10:59;;;;;;;31.85;27.02;;;;;;;;;;5079473;28;20490;-82
2023/04/17 00:13:26;;;;;;;35.67;27.02;;;;;;;;;;5079188;28;20429;-82
2023/04/17 00:15:53;;;;;;;35.63;28.60;;;;;;;;;;5079178;28;20430;-82
2023/04/17 00:18:19;;;;;;;39.17;28.63;;;;;;;;;;5083400;28;20413;-82
2023/04/17 00:20:45;;;;;;;35.53;26.90;;;;;;;;;;5075421;28;20503;-82
2023/04/17 00:23:12;;;;;;;37.40;27.43;;;;;;;;;;5078332;28;20449;-82
2023/04/17 00:25:38;;;;;;;35.58;27.20;;;;;;;;;;5081959;28;20424;-82
2023/04/17 00:28:05;;;;;;;35.73;27.57;;;;;;;;;;5083657;28;20403;-82
2023/04/17 00:30:32;;;;;;;34.15;26.98;;;;;;;;;;5082591;28;20779;-82
2023/04/17 00:32:59;;;;;;;34.67;26.63;;;;;;;;;;5080336;28;20404;-82
2023/04/17 00:35:25;;;;;;;34.93;27.20;;;;;;;;;;5078600;28;20408;-82
2023/04/17 00:37:51;;;;;;;35.88;26.95;;;;;;;;;;5082048;28;20419;-82
2023/04/17 00:40:18;;;;;;;33.92;26.55;;;;;;;;;;5079935;28;20794;-82
2023/04/17 00:42:44;;;;;;;36.53;28.33;;;;;;;;;;5083420;28;20437;-82
2023/04/17 00:45:11;;;;;;;32.97;26.80;;;;;;;;;;5084551;28;20414;-82
2023/04/17 00:47:39;;;;;;;34.33;27.57;;;;;;;;;;5080293;28;20817;-82
2023/04/17 00:50:07;;;;;;;38.85;27.95;;;;;;;;;;5071058;28;22445;-82
2023/04/17 00:52:33;;;;;;;33.90;26.77;;;;;;;;;;5077186;28;20423;-82
2023/04/17 00:54:59;;;;;;;38.10;27.30;;;;;;;;;;5078360;28;20421;-82
2023/04/17 00:57:26;;;;;;;32.90;26.67;;;;;;;;;;5075422;28;20486;-82
2023/04/17 00:59:53;;;;;;;35.58;27.27;;;;;;;;;;5078712;28;20433;-82
2023/04/17 01:02:19;;;;;;;34.30;27.25;;;;;;;;;;5072668;28;20427;-82
2023/04/17 01:04:47;;;;;;;35.78;27.58;;;;;;;;;;5074996;28;20936;-82
2023/04/17 01:07:14;;;;;;;34.65;26.10;;;;;;;;;;5077072;28;20895;-82
2023/04/17 01:09:40;;;;;;;33.38;26.05;;;;;;;;;;5078891;28;20651;-82
2023/04/17 01:12:16;;;;;;;36.75;26.45;;;;;;;;;;5073481;28;20487;-82
2023/04/17 01:14:43;;;;;;;38.60;29.40;;;;;;;;;;5076808;28;21028;-82
2023/04/17 01:17:10;;;;;;;36.97;29.42;;;;;;;;;;5075798;28;20518;-82
2023/04/17 01:19:36;;;;;;;37.70;28.40;;;;;;;;;;5077739;28;20419;-82
2023/04/17 01:22:04;;;;;;;39.85;29.48;;;;;;;;;;5065911;28;20455;-82
2023/04/17 01:24:32;;;;;;;42.10;28.15;;;;;;;;;;5080098;28;20422;-82
2023/04/17 01:26:58;;;;;;;37.88;29.67;;;;;;;;;;5082617;28;20414;-82
2023/04/17 01:29:24;;;;;;;40.90;30.98;;;;;;;;;;5081424;28;20412;-82
2023/04/17 01:31:51;;;;;;;37.88;29.30;;;;;;;;;;5078133;28;20665;-82
2023/04/17 01:34:17;;;;;;;38.17;28.77;;;;;;;;;;5081092;28;20414;-82
2023/04/17 01:36:43;;;;;;;39.60;29.08;;;;;;;;;;5080081;28;20410;-82
2023/04/17 01:39:10;;;;;;;38.15;30.40;;;;;;;;;;5075667;28;20907;-82
2023/04/17 01:41:37;;;;;;;39.65;30.27;;;;;;;;;;5081239;28;21202;-82
2023/04/17 01:44:04;;;;;;;41.78;30.23;;;;;;;;;;5077830;28;20410;-82
2023/04/17 01:46:30;;;;;;;37.30;29.17;;;;;;;;;;5080299;28;20905;-82
2023/04/17 01:48:56;;;;;;;43.83;30.70;;;;;;;;;;5081162;28;20756;-82
2023/04/17 01:51:23;;;;;;;41.25;30.55;;;;;;;;;;5081577;28;20888;-82
2023/04/17 01:53:49;;;;;;;41.90;32.05;;;;;;;;;;5074854;28;20415;-82
2023/04/17 01:56:16;;;;;;;41.95;30.98;;;;;;;;;;5076651;28;20435;-82
2023/04/17 01:58:44;;;;;;;41.55;31.15;;;;;;;;;;5074265;28;20479;-82
2023/04/17 02:01:11;;;;;;;41.78;30.35;;;;;;;;;;5077995;28;20451;-82
2023/04/17 02:03:37;;;;;;;43.80;31.50;;;;;;;;;;5074513;28;20412;-82
2023/04/17 02:06:04;;;;;;;40.42;31.23;;;;;;;;;;5078632;28;20418;-82
2023/04/17 02:08:30;;;;;;;36.88;27.60;;;;;;;;;;5076198;28;20513;-82
2023/04/17 02:10:56;;;;;;;38.40;28.92;;;;;;;;;;5072531;28;20423;-82
2023/04/17 02:13:23;;;;;;;37.80;28.95;;;;;;;;;;5070037;28;20420;-82
2023/04/17 02:15:50;;;;;;;43.30;31.75;;;;;;;;;;5077924;28;20908;-82
2023/04/17 02:18:17;;;;;;;41.08;31.40;;;;;;;;;;5072222;28;20423;-82
2023/04/17 02:20:43;;;;;;;39.03;29.23;;;;;;;;;;5076447;28;20558;-82
2023/04/17 02:23:09;;;;;;;40.17;29.75;;;;;;;;;;5081662;28;20933;-82
2023/04/17 02:25:36;;;;;;;40.33;30.15;;;;;;;;;;5083085;28;20963;-82
2023/04/17 02:28:02;;;;;;;37.50;29.20;;;;;;;;;;5085884;28;20404;-82
2023/04/17 02:30:29;;;;;;;40.65;31.02;;;;;;;;;;5080680;28;20954;-82
2023/04/17 02:32:57;;;;;;;39.08;29.70;;;;;;;;;;5073236;28;20433;-82
2023/04/17 02:35:24;;;;;;;38.70;30.30;;;;;;;;;;5079161;28;20455;-82
2023/04/17 02:37:51;;;;;;;40.80;30.03;;;;;;;;;;5080219;28;20411;-82
2023/04/17 02:40:17;;;;;;;39.95;31.48;;;;;;;;;;5082989;28;20423;-82
2023/04/17 02:42:44;;;;;;;40.70;30.38;;;;;;;;;;5083625;28;20434;-82
2023/04/17 02:45:11;;;;;;;39.05;29.58;;;;;;;;;;5076639;28;20895;-82
2023/04/17 02:47:37;;;;;;;34.72;29.20;;;;;;;;;;5080392;28;20441;-82
2023/04/17 02:50:06;;;;;;;36.05;28.65;;;;;;;;;;5082391;28;20421;-82
2023/04/17 02:52:33;;;;;;;38.95;28.20;;;;;;;;;;5075676;28;20430;-82
2023/04/17 02:54:59;;;;;;;38.90;28.15;;;;;;;;;;5082724;28;20427;-82
2023/04/17 02:57:26;;;;;;;39.25;29.80;;;;;;;;;;5077955;28;20441;-82
2023/04/17 02:59:52;;;;;;;46.30;32.37;;;;;;;;;;5074200;28;20462;-82
2023/04/17 03:02:20;;;;;;;42.72;31.88;;;;;;;;;;5078264;28;20433;-83
2023/04/17 03:04:47;;;;;;;44.45;33.33;;;;;;;;;;5075163;28;20420;-82
2023/04/17 03:07:17;;;;;;;38.60;30.93;;;;;;;;;;5079928;28;21004;-82
2023/04/17 03:09:45;;;;;;;40.50;31.45;;;;;;;;;;5079523;28;20431;-82
2023/04/17 03:12:12;;;;;;;41.92;32.30;;;;;;;;;;5073184;28;20486;-82
2023/04/17 03:14:38;;;;;;;43.03;31.10;;;;;;;;;;5073356;28;20460;-82
2023/04/17 03:17:05;;;;;;;42.92;31.85;;;;;;;;;;5079417;28;20427;-82
2023/04/17 03:19:31;;;;;;;39.53;31.07;;;;;;;;;;5063804;28;20417;-82
2023/04/17 03:21:57;;;;;;;40.50;31.85;;;;;;;;;;5087316;28;20413;-82
2023/04/17 03:24:25;;;;;;;39.65;30.98;;;;;;;;;;5082237;28;20781;-82
2023/04/17 03:26:51;;;;;;;42.25;32.15;;;;;;;;;;5078700;28;20594;-82
2023/04/17 03:29:18;;;;;;;39.88;30.85;;;;;;;;;;5078754;28;20409;-82
2023/04/17 03:31:44;;;;;;;42.00;31.40;;;;;;;;;;5072928;28;20419;-82
2023/04/17 03:34:11;;;;;;;41.35;31.08;;;;;;;;;;5080324;28;20433;-82
2023/04/17 03:36:37;;;;;;;40.93;30.50;;;;;;;;;;5080797;28;20433;-82
2023/04/17 03:39:04;;;;;;;41.15;32.88;;;;;;;;;;5071286;28;20423;-82
2023/04/17 03:41:32;;;;;;;42.17;32.13;;;;;;;;;;5079995;28;20875;-82
2023/04/17 03:43:58;;;;;;;38.80;29.95;;;;;;;;;;5080905;28;20423;-82
2023/04/17 03:46:24;;;;;;;41.05;31.38;;;;;;;;;;5080697;28;20812;-82
2023/04/17 03:48:51;;;;;;;44.92;31.45;;;;;;;;;;5079264;28;20413;-82
2023/04/17 03:51:17;;;;;;;42.85;32.83;;;;;;;;;;5071976;28;20427;-82
2023/04/17 03:53:44;;;;;;;42.47;31.50;;;;;;;;;;5074699;28;20417;-82
2023/04/17 03:56:10;;;;;;;45.45;33.38;;;;;;;;;;5074770;28;20921;-82
2023/04/17 03:58:38;;;;;;;42.92;32.45;;;;;;;;;;5077876;28;20848;-82
2023/04/17 04:01:09;;;;;;;40.63;32.30;;;;;;;;;;5078331;28;20430;-82
2023/04/17 04:03:35;;;;;;;41.70;30.90;;;;;;;;;;5079022;28;20427;-81
2023/04/17 04:06:02;;;;;;;40.92;30.83;;;;;;;;;;5077673;28;20423;-83
2023/04/17 04:08:28;;;;;;;42.85;31.80;;;;;;;;;;5078687;28;20423;-81
2023/04/17 04:10:55;;;;;;;40.45;31.73;;;;;;;;;;5077761;28;20433;-82
2023/04/17 04:13:21;;;;;;;42.75;32.20;;;;;;;;;;5082262;28;20913;-81
2023/04/17 04:15:49;;;;;;;40.43;30.60;;;;;;;;;;5082851;28;20426;-82
2023/04/17 04:18:16;;;;;;;42.53;32.40;;;;;;;;;;5077901;28;20413;-81
2023/04/17 04:20:42;;;;;;;40.90;30.80;;;;;;;;;;5085696;28;20422;-81
2023/04/17 04:23:09;;;;;;;43.60;31.85;;;;;;;;;;5082825;28;20418;-81
2023/04/17 04:25:35;;;;;;;42.55;31.70;;;;;;;;;;5078757;28;20425;-82
2023/04/17 04:28:01;;;;;;;43.70;33.03;;;;;;;;;;5075250;28;20421;-83
2023/04/17 04:30:34;;;;;;;45.10;32.80;;;;;;;;;;5077662;28;20455;-82
2023/04/17 04:33:04;;;;;;;44.70;33.05;;;;;;;;;;5074092;28;20469;-83
2023/04/17 04:35:30;;;;;;;47.15;35.40;;;;;;;;;;5077269;28;20907;-82
2023/04/17 04:38:00;;;;;;;45.53;35.27;;;;;;;;;;5077828;28;20428;-83
2023/04/17 04:40:27;;;;;;;48.58;35.88;;;;;;;;;;5079643;28;20427;-83
2023/04/17 04:42:54;;;;;;;50.08;36.17;;;;;;;;;;5086401;28;20430;-82
2023/04/17 04:45:21;;;;;;;47.50;36.67;;;;;;;;;;5075412;28;20853;-81
2023/04/17 04:47:47;;;;;;;51.05;36.10;;;;;;;;;;5081482;28;20471;-81
2023/04/17 04:50:15;;;;;;;49.75;37.63;;;;;;;;;;5072645;28;20431;-81
2023/04/17 04:52:42;;;;;;;46.00;36.40;;;;;;;;;;5072712;28;20429;-81
2023/04/17 04:55:09;;;;;;;51.55;37.20;;;;;;;;;;5080491;28;20434;-83
2023/04/17 04:57:36;;;;;;;51.58;36.25;;;;;;;;;;5083898;28;20420;-81
2023/04/17 05:00:02;;;;;;;49.25;36.05;;;;;;;;;;5073476;28;20789;-83
2023/04/17 05:02:29;;;;;;;52.83;39.58;;;;;;;;;;5076533;28;20458;-81
2023/04/17 05:04:56;;;;;;;54.38;38.55;;;;;;;;;;5082615;28;20454;-82
2023/04/17 05:07:23;;;;;;;52.63;39.78;;;;;;;;;;5081503;28;20415;-82
2023/04/17 05:09:51;;;;;;;50.88;37.47;;;;;;;;;;5078081;28;20427;-82
2023/04/17 05:12:18;;;;;;;58.67;40.43;;;;;;;;;;5072193;28;20458;-82
2023/04/17 05:14:44;;;;;;;49.40;37.13;;;;;;;;;;5076056;28;20486;-82
2023/04/17 05:17:10;;;;;;;48.03;35.55;;;;;;;;;;5075533;28;20426;-82
2023/04/17 05:19:37;;;;;;;47.25;34.80;;;;;;;;;;5078254;28;20437;-82
2023/04/17 05:22:03;;;;;;;48.75;36.40;;;;;;;;;;5084813;28;20434;-82
2023/04/17 05:24:31;;;;;;;49.22;36.13;;;;;;;;;;5079434;28;20420;-83
2023/04/17 05:26:57;;;;;;;49.50;37.13;;;;;;;;;;5084648;28;20417;-82
2023/04/17 05:29:24;;;;;;;49.25;37.28;;;;;;;;;;5061212;28;20831;-82
2023/04/17 05:31:51;;;;;;;53.28;39.35;;;;;;;;;;5074670;28;20511;-82
2023/04/17 05:34:17;;;;;;;54.30;38.15;;;;;;;;;;5074952;28;20421;-82
2023/04/17 05:36:43;;;;;;;53.33;38.30;;;;;;;;;;5079742;28;20426;-83
2023/04/17 05:39:10;;;;;;;57.97;41.92;;;;;;;;;;5074184;28;20422;-83
2023/04/17 05:41:38;;;;;;;55.47;39.97;;;;;;;;;;5076807;28;20431;-83
2023/04/17 05:44:05;;;;;;;54.90;39.97;;;;;;;;;;5075208;28;20419;-81
2023/04/17 05:46:31;;;;;;;55.75;39.10;;;;;;;;;;5080427;28;20410;-81
2023/04/17 05:48:58;;;;;;;55.05;39.70;;;;;;;;;;5078484;28;20410;-80
2023/04/17 05:51:25;;;;;;;55.20;39.72;;;;;;;;;;5082628;28;20468;-81
2023/04/17 05:53:51;;;;;;;51.08;38.38;;;;;;;;;;5076742;28;20838;-82
2023/04/17 05:56:18;;;;;;;53.58;41.17;;;;;;;;;;5078820;28;20892;-83
2023/04/17 05:58:46;;;;;;;56.30;41.83;;;;;;;;;;5069574;28;20457;-83
2023/04/17 06:01:16;;;;;;;58.87;41.57;;;;;;;;;;5082352;28;20871;-81
2023/04/17 06:03:42;;;;;;;59.47;42.88;;;;;;;;;;5079141;28;20410;-82
2023/04/17 06:06:09;;;;;;;57.80;42.45;;;;;;;;;;5083069;28;20422;-81
2023/04/17 06:08:35;;;;;;;57.67;42.93;;;;;;;;;;5082210;28;20445;-83
2023/04/17 06:11:02;;;;;;;64.97;43.00;;;;;;;;;;5082839;28;20415;-81
2023/04/17 06:13:29;;;;;;;57.20;42.15;;;;;;;;;;5081165;28;20418;-83
2023/04/17 06:15:57;;;;;;;58.78;43.78;;;;;;;;;;5086806;28;20411;-83
2023/04/17 06:18:24;;;;;;;61.30;44.72;;;;;;;;;;5081503;28;20418;-82
2023/04/17 06:20:50;;;;;;;58.08;42.90;;;;;;;;;;5082454;28;20425;-82
2023/04/17 06:23:16;;;;;;;61.65;43.17;;;;;;;;;;5084169;28;20429;-83
2023/04/17 06:25:43;;;;;;;60.20;43.72;;;;;;;;;;5086065;28;20947;-83
2023/04/17 06:28:09;;;;;;;56.83;41.93;;;;;;;;;;5084152;28;20405;-82
2023/04/17 06:30:36;;;;;;;58.33;42.35;;;;;;;;;;5082528;28;20419;-81
2023/04/17 06:33:03;;;;;;;58.97;43.22;;;;;;;;;;5080557;28;20410;-80
2023/04/17 06:35:30;;;;;;;59.83;43.30;;;;;;;;;;5078591;28;20427;-81
2023/04/17 06:37:57;;;;;;;58.88;43.25;;;;;;;;;;5082118;28;20430;-81
2023/04/17 06:40:23;;;;;;;57.90;42.38;;;;;;;;;;5082153;28;20431;-83
2023/04/17 06:42:49;;;;;;;59.90;44.53;;;;;;;;;;5081222;28;20435;-81
2023/04/17 06:45:16;;;;;;;64.90;44.03;;;;;;;;;;5078630;28;20422;-81
2023/04/17 06:47:45;;;;;;;58.27;44.53;;;;;;;;;;5083734;28;20421;-81
2023/04/17 06:50:12;;;;;;;59.83;43.47;;;;;;;;;;5078598;28;20891;-81
2023/04/17 06:52:39;;;;;;;57.05;43.05;;;;;;;;;;5082286;28;20427;-81
2023/04/17 06:55:06;;;;;;;59.30;44.30;;;;;;;;;;5083096;28;20909;-81
2023/04/17 06:57:33;;;;;;;57.30;42.73;;;;;;;;;;5082826;28;20530;-82
2023/04/17 06:59:59;;;;;;;59.05;43.85;;;;;;;;;;5078143;28;20424;-81
2023/04/17 07:02:26;;;;;;;58.28;42.03;;;;;;;;;;5083890;28;20758;-82
2023/04/17 07:04:53;;;;;;;55.95;41.63;;;;;;;;;;5084047;28;20413;-81
2023/04/17 07:07:21;;;;;;;58.22;42.50;;;;;;;;;;5084022;28;20414;-83
2023/04/17 07:09:47;;;;;;;55.55;40.80;;;;;;;;;;5075694;28;20450;-83
2023/04/17 07:12:14;;;;;;;54.25;43.00;;;;;;;;;;5082705;28;20410;-82
2023/04/17 07:14:41;;;;;;;51.85;40.45;;;;;;;;;;5077867;28;20416;-82
2023/04/17 07:17:07;;;;;;;57.60;42.55;;;;;;;;;;5081230;28;20496;-82
2023/04/17 07:19:33;;;;;;;51.58;38.25;;;;;;;;;;5079132;28;20435;-82
2023/04/17 07:22:00;;;;;;;52.80;38.40;;;;;;;;;;5074299;28;20511;-83
2023/04/17 07:24:28;;;;;;;48.30;37.17;;;;;;;;;;5076963;28;20411;-83
2023/04/17 07:26:55;;;;;;;49.60;37.20;;;;;;;;;;5083338;28;20497;-80
2023/04/17 07:29:22;;;;;;;52.53;38.90;;;;;;;;;;5080253;28;20441;-81
2023/04/17 07:31:48;;;;;;;54.10;39.25;;;;;;;;;;5076948;28;20425;-82
2023/04/17 07:34:14;;;;;;;49.78;37.92;;;;;;;;;;5082010;28;20430;-82
2023/04/17 07:36:41;;;;;;;49.97;36.92;;;;;;;;;;5084911;28;20777;-82
2023/04/17 07:39:07;;;;;;;50.38;37.83;;;;;;;;;;5066919;28;20428;-81
2023/04/17 07:41:35;;;;;;;49.72;36.45;;;;;;;;;;5080528;28;20419;-82
2023/04/17 07:44:04;;;;;;;49.08;37.30;;;;;;;;;;5081763;28;20422;-82
2023/04/17 07:46:30;;;;;;;43.53;33.95;;;;;;;;;;5078510;28;20519;-82
2023/04/17 07:48:57;;;;;;;49.72;37.25;;;;;;;;;;5081736;28;20432;-82
2023/04/17 07:51:23;;;;;;;44.15;32.50;;;;;;;;;;5084819;28;20410;-82
2023/04/17 07:53:49;;;;;;;42.00;33.10;;;;;;;;;;5081755;28;20419;-82
2023/04/17 07:56:16;;;;;;;40.47;29.52;;;;;;;;;;5080638;28;20419;-82
2023/04/17 07:58:44;;;;;;;37.38;28.30;;;;;;;;;;5082554;28;20971;-83
2023/04/17 08:01:10;;;;;;;37.10;29.25;;;;;;;;;;5080947;28;20411;-82
2023/04/17 08:03:39;;;;;;;35.30;26.63;;;;;;;;;;5081122;28;20417;-82
2023/04/17 08:06:05;;;;;;;32.78;26.33;;;;;;;;;;5084232;28;20522;-82
2023/04/17 08:08:32;;;;;;;31.33;24.50;;;;;;;;;;5080369;28;20416;-83
2023/04/17 08:10:58;;;;;;;35.80;26.33;;;;;;;;;;5082530;28;20762;-82
2023/04/17 08:13:25;;;;;;;28.13;23.70;;;;;;;;;;5086192;28;20414;-82
2023/04/17 08:15:53;;;;;;;27.70;23.42;;;;;;;;;;5082302;28;20427;-82
2023/04/17 08:18:19;;;;;;;27.87;24.40;;;;;;;;;;5078001;28;20457;-82
2023/04/17 08:20:46;;;;;;;26.83;21.27;;;;;;;;;;5069249;28;20412;-82
2023/04/17 08:23:12;;;;;;;33.90;25.50;;;;;;;;;;5083285;28;21272;-82
2023/04/17 08:25:39;;;;;;;33.25;25.10;;;;;;;;;;5082264;28;20423;-83
2023/04/17 08:28:05;;;;;;;31.25;25.90;;;;;;;;;;5083788;28;20399;-83
2023/04/17 08:30:32;;;;;;;30.67;24.93;;;;;;;;;;5082817;28;20433;-83
2023/04/17 08:33:00;;;;;;;29.92;24.10;;;;;;;;;;5083330;28;20895;-82
2023/04/17 08:35:26;;;;;;;27.00;23.27;;;;;;;;;;5079689;28;20872;-82
2023/04/17 08:37:54;;;;;;;29.50;23.83;;;;;;;;;;5076703;28;20408;-82
2023/04/17 08:40:23;;;;;;;28.05;22.27;;;;;;;;;;5083225;28;20413;-82
2023/04/17 08:42:50;;;;;;;28.83;22.05;;;;;;;;;;5079032;28;20944;-82
2023/04/17 08:45:17;;;;;;;25.92;19.85;;;;;;;;;;5072803;28;20427;-82
2023/04/17 08:47:43;;;;;;;22.10;18.90;;;;;;;;;;5065084;28;20426;-82
2023/04/17 08:50:12;;;;;;;22.05;16.92;;;;;;;;;;5078862;28;20418;-82
2023/04/17 08:52:40;;;;;;;21.20;16.63;;;;;;;;;;5078324;28;20443;-82
2023/04/17 08:55:06;;;;;;;20.60;16.20;;;;;;;;;;5078751;28;20444;-82
2023/04/17 08:57:33;;;;;;;22.23;18.27;;;;;;;;;;5081045;28;20415;-82
2023/04/17 09:00:07;;;;;;;21.40;16.98;;;;;;;;;;5079900;28;20418;-82
2023/04/17 09:02:33;;;;;;;20.08;16.10;;;;;;;;;;5078478;28;20836;-83
2023/04/17 09:05:00;;;;;;;21.15;16.92;;;;;;;;;;5076631;28;20452;-83
2023/04/17 09:07:30;;;;;;;19.73;16.15;;;;;;;;;;5079702;28;20448;-83
2023/04/17 09:09:57;;;;;;;19.65;16.48;;;;;;;;;;5079406;28;20414;-83
2023/04/17 09:12:24;;;;;;;20.27;16.00;;;;;;;;;;5074639;28;20431;-82
2023/04/17 09:14:50;;;;;;;18.95;16.05;;;;;;;;;;5076494;28;20410;-83
2023/04/17 09:17:17;;;;;;;18.50;16.17;;;;;;;;;;5073901;28;20430;-83
2023/04/17 09:20:06;;;;;;;16.25;13.75;;;;;;;;;;5068408;28;20408;-81
2023/04/17 09:22:34;;;;;;;15.60;12.60;;;;;;;;;;5081806;28;20422;-83
2023/04/17 09:25:00;;;;;;;17.23;12.85;;;;;;;;;;5081796;28;20422;-83
2023/04/17 09:27:27;;;;;;;16.20;13.70;;;;;;;;;;5078099;28;20414;-83
2023/04/17 09:29:58;;;;;;;15.73;12.85;;;;;;;;;;5075945;28;20956;-83
2023/04/17 09:32:25;;;;;;;15.00;13.40;;;;;;;;;;5079592;28;20446;-82
2023/04/17 09:34:52;;;;;;;15.73;13.45;;;;;;;;;;5076222;28;20410;-81
2023/04/17 09:37:18;;;;;;;15.55;13.32;;;;;;;;;;5079141;28;20816;-83
2023/04/17 09:39:56;;;;;;;15.95;13.13;;;;;;;;;;5105730;28;20416;-83
2023/04/17 09:42:25;;;;;;;17.23;13.75;;;;;;;;;;5102202;28;21275;-83
2023/04/17 09:44:51;;;;;;;18.60;15.13;;;;;;;;;;5098655;28;20426;-81
2023/04/17 09:47:18;;;;;;;15.88;14.18;;;;;;;;;;5100542;28;20807;-81
2023/04/17 09:49:51;;;;;;;16.30;13.60;;;;;;;;;;5102581;28;20413;-81
2023/04/17 09:52:17;;;;;;;16.42;14.73;;;;;;;;;;5100323;28;20445;-81
2023/04/17 09:54:45;;;;;;;16.60;14.80;;;;;;;;;;5104190;28;20412;-83
2023/04/17 09:57:13;;;;;;;17.98;14.65;;;;;;;;;;5091031;28;20424;-82
2023/04/17 09:59:40;;;;;;;17.65;15.20;;;;;;;;;;5094824;28;20409;-82
2023/04/17 10:02:07;;;;;;;19.58;16.27;;;;;;;;;;5099619;28;20410;-81
2023/04/17 10:04:34;;;;;;;20.13;15.73;;;;;;;;;;5102865;28;20416;-83
2023/04/17 10:07:01;;;;;;;16.97;15.17;;;;;;;;;;5096097;28;20422;-81
2023/04/17 10:09:28;;;;;;;18.25;16.13;;;;;;;;;;5099812;28;20429;-82
2023/04/17 10:11:55;;;;;;;18.52;16.55;;;;;;;;;;5102573;28;20612;-80
2023/04/17 10:14:25;;;;;;;19.03;15.87;;;;;;;;;;5097612;28;20494;-81
2023/04/17 10:16:52;;;;;;;16.80;15.10;;;;;;;;;;5091620;28;20422;-82
2023/04/17 10:19:29;;;;;;;19.65;17.13;;;;;;;;;;5092498;28;20443;-82
2023/04/17 10:22:16;;;;;;;18.80;16.60;;;;;;;;;;5099367;28;20830;-82
2023/04/17 10:24:43;;;;;;;17.73;15.82;;;;;;;;;;5101747;28;20421;-80
2023/04/17 10:27:24;;;;;;;18.65;16.70;;;;;;;;;;5101787;28;20429;-81
2023/04/17 10:29:55;;;;;;;17.73;15.90;;;;;;;;;;5090918;28;20479;-83
2023/04/17 10:32:24;;;;;;;16.83;14.85;;;;;;;;;;5094003;28;20417;-81
2023/04/17 10:34:51;;;;;;;16.98;15.18;;;;;;;;;;5095783;28;20510;-83
2023/04/17 10:37:17;;;;;;;15.77;14.07;;;;;;;;;;5098708;28;20420;-81
2023/04/17 10:40:06;;;;;;;16.98;14.10;;;;;;;;;;5099855;28;20414;-81
2023/04/17 10:42:32;;;;;;;17.90;15.10;;;;;;;;;;5078403;28;20450;-81
2023/04/17 10:45:03;;;;;;;17.55;15.75;;;;;;;;;;5070950;28;20419;-82
2023/04/17 10:47:30;;;;;;;16.60;14.88;;;;;;;;;;5076991;28;20922;-81
2023/04/17 10:49:58;;;;;;;15.10;13.60;;;;;;;;;;5083718;28;20420;-81
2023/04/17 10:52:44;;;;;;;16.85;14.00;;;;;;;;;;5086454;28;20423;-81
2023/04/17 10:55:14;;;;;;;14.02;12.43;;;;;;;;;;5081766;28;20948;-82
2023/04/17 10:57:52;;;;;;;15.70;12.70;;;;;;;;;;5084020;28;20405;-80
2023/04/17 11:00:21;;;;;;;15.45;12.15;;;;;;;;;;5078944;28;20493;-82
2023/04/17 11:02:49;;;;;;;15.00;11.98;;;;;;;;;;5079195;28;20781;-80
2023/04/17 11:05:16;;;;;;;13.75;12.25;;;;;;;;;;5082290;28;20460;-81
2023/04/17 11:07:43;;;;;;;14.32;12.63;;;;;;;;;;5079014;28;20435;-82
2023/04/17 11:10:10;;;;;;;15.10;12.80;;;;;;;;;;5081920;28;20409;-82
2023/04/17 11:12:38;;;;;;;14.30;12.90;;;;;;;;;;5079812;28;20417;-82
2023/04/17 11:15:05;;;;;;;14.48;12.98;;;;;;;;;;5075427;28;20430;-82
2023/04/17 11:17:32;;;;;;;15.45;12.68;;;;;;;;;;5083794;28;20411;-83
2023/04/17 11:20:00;;;;;;;14.95;13.15;;;;;;;;;;5083757;28;20416;-82
2023/04/17 11:22:32;;;;;;;14.97;12.40;;;;;;;;;;5086037;28;20899;-82
2023/04/17 11:24:59;;;;;;;16.38;12.70;;;;;;;;;;5083373;28;20400;-82
2023/04/17 11:27:25;;;;;;;14.32;12.82;;;;;;;;;;5086206;28;20426;-82
2023/04/17 11:29:51;;;;;;;16.05;13.02;;;;;;;;;;5080211;28;20448;-81
2023/04/17 11:32:18;;;;;;;15.77;14.07;;;;;;;;;;5084068;28;20411;-81
2023/04/17 11:34:45;;;;;;;14.87;12.97;;;;;;;;;;5082220;28;20433;-82
2023/04/17 11:37:13;;;;;;;14.85;13.38;;;;;;;;;;5077825;28;20411;-81
2023/04/17 11:39:42;;;;;;;18.25;16.30;;;;;;;;;;5074357;28;20415;-81
2023/04/17 11:42:09;;;;;;;18.23;16.20;;;;;;;;;;5085976;28;20762;-81
2023/04/17 11:44:36;;;;;;;18.30;16.40;;;;;;;;;;5082470;28;20424;-81
2023/04/17 11:47:04;;;;;;;18.40;16.48;;;;;;;;;;5083309;28;20525;-81
2023/04/17 11:49:31;;;;;;;18.35;16.38;;;;;;;;;;5082393;28;20983;-82
2023/04/17 11:52:00;;;;;;;20.90;16.33;;;;;;;;;;5067608;28;20407;-82
2023/04/17 11:54:27;;;;;;;21.15;16.05;;;;;;;;;;5080926;28;20421;-81
2023/04/17 11:56:58;;;;;;;18.80;15.80;;;;;;;;;;5079970;28;20427;-80
2023/04/17 11:59:31;;;;;;;17.55;15.65;;;;;;;;;;5087436;28;20426;-81
2023/04/17 12:01:59;;;;;;;18.92;16.95;;;;;;;;;;5084021;28;20414;-80
2023/04/17 12:04:27;;;;;;;17.75;15.52;;;;;;;;;;5083151;28;20504;-80
2023/04/17 12:06:53;;;;;;;17.30;15.50;;;;;;;;;;5081816;28;20854;-80
2023/04/17 12:09:23;;;;;;;19.10;17.08;;;;;;;;;;5081665;28;20411;-80
2023/04/17 12:11:52;;;;;;;17.15;14.00;;;;;;;;;;5085772;28;20446;-81
2023/04/17 12:14:18;;;;;;;16.10;14.35;;;;;;;;;;5081935;28;20420;-80
2023/04/17 12:16:48;;;;;;;16.63;14.35;;;;;;;;;;5081136;28;20427;-80
2023/04/17 12:19:16;;;;;;;16.55;14.77;;;;;;;;;;5077926;28;20412;-80
2023/04/17 12:21:43;;;;;;;16.50;14.80;;;;;;;;;;5081148;28;20411;-80
2023/04/17 12:24:10;;;;;;;16.17;14.48;;;;;;;;;;5075478;28;20419;-80
2023/04/17 12:26:45;;;;;;;15.47;13.70;;;;;;;;;;5082839;28;20423;-80
2023/04/17 12:29:12;;;;;;;16.02;14.32;;;;;;;;;;5079039;28;20421;-82
2023/04/17 12:31:38;;;;;;;15.27;13.68;;;;;;;;;;5081567;28;20406;-82
2023/04/17 12:34:05;;;;;;;19.40;14.52;;;;;;;;;;5077949;28;20432;-80
2023/04/17 12:36:31;;;;;;;15.57;13.90;;;;;;;;;;5080954;28;20428;-81
2023/04/17 12:38:58;;;;;;;17.00;15.00;;;;;;;;;;5079279;28;20415;-81
2023/04/17 12:41:25;;;;;;;16.40;14.25;;;;;;;;;;5081410;28;20433;-81
2023/04/17 12:43:53;;;;;;;17.70;15.90;;;;;;;;;;5079829;28;20511;-81
2023/04/17 12:46:20;;;;;;;17.20;14.27;;;;;;;;;;5081239;28;20457;-81
2023/04/17 12:48:47;;;;;;;15.40;12.80;;;;;;;;;;5080460;28;20406;-81
2023/04/17 12:51:14;;;;;;;12.50;9.68;;;;;;;;;;5080976;28;20410;-81
2023/04/17 12:53:40;;;;;;;11.27;10.03;;;;;;;;;;5081024;28;20415;-81
2023/04/17 12:56:07;;;;;;;11.60;8.95;;;;;;;;;;5079824;28;20770;-81
2023/04/17 12:58:33;;;;;;;12.02;8.85;;;;;;;;;;5078587;28;20429;-81
2023/04/17 13:01:01;;;;;;;11.80;9.55;;;;;;;;;;5081253;28;20415;-81
2023/04/17 13:03:27;;;;;;;13.07;9.90;;;;;;;;;;5076849;28;20410;-81
2023/04/17 13:05:54;;;;;;;11.05;8.82;;;;;;;;;;5079337;28;20426;-81
2023/04/17 13:08:20;;;;;;;10.20;9.20;;;;;;;;;;5081276;28;20416;-81
2023/04/17 13:10:46;;;;;;;8.95;7.30;;;;;;;;;;5082892;28;20411;-81
2023/04/17 13:13:13;;;;;;;8.50;7.07;;;;;;;;;;5080354;28;20412;-81
2023/04/17 13:15:40;;;;;;;8.52;7.20;;;;;;;;;;5079809;28;20426;-81
2023/04/17 13:18:09;;;;;;;8.55;7.10;;;;;;;;;;5077312;28;20916;-81
2023/04/17 13:20:35;;;;;;;10.00;6.60;;;;;;;;;;5078484;28;20417;-81
2023/04/17 13:23:03;;;;;;;9.32;6.68;;;;;;;;;;5082553;28;20780;-81
2023/04/17 13:25:29;;;;;;;10.02;7.70;;;;;;;;;;5081311;28;20766;-81
2023/04/17 13:27:56;;;;;;;10.35;7.10;;;;;;;;;;5076114;28;20950;-81
2023/04/17 13:30:23;;;;;;;10.55;7.82;;;;;;;;;;5079486;28;20434;-80
2023/04/17 13:32:50;;;;;;;9.77;8.20;;;;;;;;;;5078914;28;20879;-81
2023/04/17 13:35:17;;;;;;;10.80;8.10;;;;;;;;;;5077751;28;20417;-81
2023/04/17 13:37:45;;;;;;;7.78;6.93;;;;;;;;;;5088419;28;20408;-81
2023/04/17 13:40:11;;;;;;;10.00;7.13;;;;;;;;;;5077623;28;20805;-82
2023/04/17 13:42:38;;;;;;;9.18;6.90;;;;;;;;;;5077572;28;20801;-81
2023/04/17 13:45:05;;;;;;;8.10;7.20;;;;;;;;;;5079874;28;20884;-81
2023/04/17 13:47:31;;;;;;;6.95;6.35;;;;;;;;;;5074533;28;20426;-79
2023/04/17 13:49:57;;;;;;;7.70;6.90;;;;;;;;;;5073821;28;20442;-81
2023/04/17 13:52:25;;;;;;;7.97;7.18;;;;;;;;;;5082122;28;20893;-81
2023/04/17 13:54:52;;;;;;;9.98;7.45;;;;;;;;;;5080430;28;20850;-81
2023/04/17 13:57:18;;;;;;;11.13;8.00;;;;;;;;;;5076879;28;20398;-81
2023/04/17 13:59:44;;;;;;;8.95;8.05;;;;;;;;;;5070450;28;20418;-81
2023/04/17 14:02:11;;;;;;;8.90;7.70;;;;;;;;;;5078805;28;20424;-81
2023/04/17 14:04:37;;;;;;;8.45;7.55;;;;;;;;;;5079408;28;20948;-81
2023/04/17 14:07:04;;;;;;;10.13;8.27;;;;;;;;;;5076793;28;20500;-81
2023/04/17 14:09:32;;;;;;;10.10;8.65;;;;;;;;;;5077747;28;20481;-81
2023/04/17 14:11:58;;;;;;;11.20;8.43;;;;;;;;;;5074701;28;20428;-81
2023/04/17 14:14:24;;;;;;;8.37;7.43;;;;;;;;;;5079297;28;20897;-81
2023/04/17 14:16:51;;;;;;;8.25;6.80;;;;;;;;;;5079767;28;20786;-81
2023/04/17 14:19:20;;;;;;;7.97;6.95;;;;;;;;;;5083979;28;20416;-81